Time;durP1;ratioP1;P1;durP2;ratioP2;P2;SDS_P1;SDS_P2;PMS_P1;PMS_P2;Temp;Humidity;BMP_temperature;BMP_pressure;BME280_temperature;BME280_humidity;BME280_pressure;Samples;Min_cycle;Max_cycle;Signal;HPM_P1;HPM_P2
2021/12/25 00:00:53;;;;;;;16.30;9.73;;;;;;;4.49;100.00;100505.09;5111982;28;20067;-89
2021/12/25 00:03:19;;;;;;;15.57;9.95;;;;;;;4.47;100.00;100500.75;5111134;28;20110;-89
2021/12/25 00:05:49;;;;;;;15.55;9.80;;;;;;;4.43;100.00;100496.50;5113757;28;20067;-88
2021/12/25 00:08:14;;;;;;;17.90;10.60;;;;;;;4.46;100.00;100505.94;5115656;28;20366;-87
2021/12/25 00:10:40;;;;;;;17.70;10.30;;;;;;;4.44;100.00;100500.78;5114617;28;20024;-88
2021/12/25 00:13:05;;;;;;;17.48;10.63;;;;;;;4.43;100.00;100511.13;5101250;28;20035;-88
2021/12/25 00:15:30;;;;;;;19.38;10.88;;;;;;;4.38;100.00;100497.34;5101143;28;20023;-87
2021/12/25 00:17:56;;;;;;;19.67;11.07;;;;;;;4.41;100.00;100510.25;5099541;28;20467;-88
2021/12/25 00:20:21;;;;;;;21.40;11.68;;;;;;;4.44;100.00;100513.69;5109620;28;20024;-88
2021/12/25 00:22:46;;;;;;;19.88;11.32;;;;;;;4.39;100.00;100502.53;5107418;28;20028;-88
2021/12/25 00:25:12;;;;;;;20.33;12.40;;;;;;;4.37;100.00;100498.22;5114637;28;20497;-87
2021/12/25 00:27:46;;;;;;;21.80;12.20;;;;;;;4.36;100.00;100499.97;5094571;28;20022;-87
2021/12/25 00:30:19;;;;;;;21.98;11.77;;;;;;;4.36;100.00;100492.22;5095895;28;20152;-88
2021/12/25 00:33:04;;;;;;;21.05;12.48;;;;;;;4.39;100.00;100499.09;5093789;28;20032;-88
2021/12/25 00:35:30;;;;;;;23.20;13.10;;;;;;;4.39;100.00;100493.94;5104537;28;20035;-88
2021/12/25 00:37:55;;;;;;;22.33;13.10;;;;;;;4.32;100.00;100484.50;5109115;28;20028;-87
2021/12/25 00:40:22;;;;;;;22.77;13.45;;;;;;;4.36;100.00;100491.38;5106498;28;20357;-88
2021/12/25 00:42:47;;;;;;;23.60;13.32;;;;;;;4.32;100.00;100484.50;5098988;28;20098;-88
2021/12/25 00:45:13;;;;;;;24.48;14.20;;;;;;;4.38;100.00;100498.25;5099194;28;20048;-88
2021/12/25 00:47:39;;;;;;;27.13;14.38;;;;;;;4.35;100.00;100500.84;5096851;28;20028;-88
2021/12/25 00:50:05;;;;;;;26.10;14.45;;;;;;;4.37;100.00;100506.84;5113089;28;20020;-88
2021/12/25 00:52:30;;;;;;;24.67;14.25;;;;;;;4.38;100.00;100502.53;5099894;28;20043;-88
2021/12/25 00:54:56;;;;;;;27.38;14.13;;;;;;;4.39;100.00;100514.59;5095517;28;20403;-88
2021/12/25 00:57:21;;;;;;;24.25;14.63;;;;;;;4.33;100.00;100499.97;5095121;28;20036;-87
2021/12/25 00:59:47;;;;;;;29.63;15.43;;;;;;;4.37;100.00;100511.13;5112796;28;20031;-88
2021/12/25 01:02:13;;;;;;;28.27;15.48;;;;;;;4.35;100.00;100512.84;5112883;27;20510;-88
2021/12/25 01:04:38;;;;;;;27.55;15.13;;;;;;;4.33;100.00;100504.28;5113757;28;20047;-87
2021/12/25 01:07:03;;;;;;;30.27;15.98;;;;;;;4.34;100.00;100508.56;5111928;28;20035;-88
2021/12/25 01:09:29;;;;;;;27.90;15.77;;;;;;;4.32;100.00;100505.16;5096028;28;20029;-88
2021/12/25 01:11:55;;;;;;;27.95;15.13;;;;;;;4.30;100.00;100504.28;5093980;28;20059;-89
2021/12/25 01:20:17;;;;;;;30.70;16.58;;;;;;;4.28;100.00;100499.13;5035576;28;20036;-88
2021/12/25 01:28:31;;;;;;;32.92;17.90;;;;;;;4.26;100.00;100493.13;5102268;28;20033;-88
2021/12/25 01:30:58;;;;;;;33.42;17.40;;;;;;;4.26;100.00;100500.00;5111664;28;20364;-88
2021/12/25 01:33:50;;;;;;;33.67;19.10;;;;;;;4.19;100.00;100489.69;5112150;28;20034;-89
2021/12/25 01:38:55;;;;;;;41.33;21.15;;;;;;;4.21;100.00;100492.25;5103647;28;20032;-89
2021/12/25 01:49:36;;;;;;;39.53;22.13;;;;;;;4.15;100.00;100494.84;5081126;28;20042;-87
2021/12/25 01:52:03;;;;;;;45.22;22.88;;;;;;;4.16;100.00;100496.59;5105088;28;20433;-86
2021/12/25 01:54:29;;;;;;;40.25;21.88;;;;;;;4.14;100.00;100496.59;5117818;27;20023;-87
2021/12/25 01:56:54;;;;;;;44.63;23.27;;;;;;;4.13;100.00;100491.44;5093937;28;20387;-87
2021/12/25 01:59:19;;;;;;;46.45;24.13;;;;;;;4.08;100.00;100469.94;5096715;28;20472;-87
2021/12/25 02:01:45;;;;;;;49.88;25.27;;;;;;;4.12;100.00;100488.00;5112824;28;20015;-88
2021/12/25 02:04:11;;;;;;;49.60;25.17;;;;;;;4.13;100.00;100497.44;5112444;28;20383;-87
2021/12/25 02:06:36;;;;;;;46.92;24.20;;;;;;;4.15;100.00;100494.84;5112950;28;20144;-87
2021/12/25 02:09:03;;;;;;;51.13;25.70;;;;;;;4.12;100.00;100495.75;5104645;28;20024;-87
2021/12/25 02:11:28;;;;;;;50.75;25.95;;;;;;;4.10;100.00;100484.56;5109874;28;20028;-87
2021/12/25 02:13:55;;;;;;;51.65;26.30;;;;;;;4.11;100.00;100490.56;5104628;28;20044;-87
2021/12/25 02:16:23;;;;;;;51.83;26.45;;;;;;;4.09;100.00;100492.31;5095481;28;20032;-87
2021/12/25 02:21:34;;;;;;;54.70;27.52;;;;;;;4.08;100.00;100488.00;5095015;28;20039;-87
2021/12/25 02:24:00;;;;;;;52.92;27.88;;;;;;;4.08;100.00;100488.84;5092882;28;20031;-87
2021/12/25 02:26:26;;;;;;;56.08;29.48;;;;;;;4.05;100.00;100480.25;5110459;28;20031;-87
2021/12/25 02:28:53;;;;;;;54.53;27.83;;;;;;;4.04;100.00;100486.28;5109013;28;20475;-87
2021/12/25 02:31:19;;;;;;;55.53;27.95;;;;;;;3.97;100.00;100478.56;5107709;28;20433;-88
2021/12/25 02:33:44;;;;;;;57.95;29.08;;;;;;;3.98;100.00;100472.53;5096530;28;20139;-88
2021/12/25 02:36:12;;;;;;;56.35;28.45;;;;;;;4.00;100.00;100485.44;5111518;28;20059;-88
2021/12/25 02:38:39;;;;;;;54.47;26.73;;;;;;;3.97;100.00;100490.63;5106689;28;20030;-88
2021/12/25 02:41:05;;;;;;;57.70;27.23;;;;;;;3.95;100.00;100482.88;5093548;28;20016;-87
2021/12/25 02:43:31;;;;;;;53.70;26.73;;;;;;;3.94;100.00;100491.47;5104688;28;20459;-88
2021/12/25 02:46:02;;;;;;;51.00;25.58;;;;;;;3.91;100.00;100480.31;5109775;28;20028;-88
2021/12/25 02:48:27;;;;;;;47.33;23.55;;;;;;;3.91;100.00;100491.47;5109098;28;20023;-87
2021/12/25 02:50:52;;;;;;;50.25;23.90;;;;;;;3.88;100.00;100486.31;5112345;28;20046;-87
2021/12/25 02:53:18;;;;;;;45.38;23.05;;;;;;;3.79;100.00;100494.06;5111753;28;20030;-87
2021/12/25 02:55:45;;;;;;;48.05;22.42;;;;;;;3.78;100.00;100497.50;5109580;28;20043;-88
2021/12/25 02:58:10;;;;;;;47.05;22.67;;;;;;;3.73;100.00;100488.94;5111877;28;20019;-88
2021/12/25 03:00:39;;;;;;;43.80;21.95;;;;;;;3.71;100.00;100494.09;5101499;28;20046;-87
2021/12/25 03:03:06;;;;;;;43.80;21.70;;;;;;;3.69;100.00;100484.63;5093601;28;20042;-87
2021/12/25 03:05:32;;;;;;;43.38;20.95;;;;;;;3.71;100.00;100501.81;5100884;28;20031;-87
2021/12/25 03:07:58;;;;;;;42.78;21.63;;;;;;;3.72;100.00;100494.94;5111611;28;20023;-87
2021/12/25 03:10:24;;;;;;;43.00;21.98;;;;;;;3.71;100.00;100498.38;5102280;28;20027;-88
2021/12/25 03:13:04;;;;;;;40.90;21.13;;;;;;;3.68;100.00;100514.72;5112419;28;20054;-87
2021/12/25 03:15:41;;;;;;;42.63;22.02;;;;;;;3.67;100.00;100504.41;5102283;28;20065;-87
2021/12/25 03:18:07;;;;;;;32.65;17.27;;;;;;;3.61;100.00;100507.84;5097992;28;20020;-87
2021/12/25 03:20:33;;;;;;;33.53;18.88;;;;;;;3.59;100.00;100512.13;5090934;28;20043;-88
2021/12/25 03:22:59;;;;;;;31.67;17.80;;;;;;;3.49;100.00;100513.84;5092171;28;20020;-87
2021/12/25 03:25:24;;;;;;;28.52;16.58;;;;;;;3.32;100.00;100509.56;5104834;28;20428;-88
2021/12/25 03:27:51;;;;;;;34.30;18.17;;;;;;;3.34;100.00;100526.75;5110954;28;20024;-88
2021/12/25 03:30:17;;;;;;;31.58;17.13;;;;;;;3.29;100.00;100525.88;5108836;28;20028;-87
2021/12/25 03:32:44;;;;;;;36.65;18.25;;;;;;;3.22;100.00;100529.28;5103960;28;20498;-88
2021/12/25 03:35:10;;;;;;;33.63;18.63;;;;;;;3.18;100.00;100533.59;5093221;28;20027;-88
2021/12/25 03:37:35;;;;;;;35.50;18.60;;;;;;;3.14;100.00;100524.16;5111383;28;20023;-88
2021/12/25 03:40:00;;;;;;;36.47;17.27;;;;;;;3.05;100.00;100521.53;5098161;28;20032;-89
2021/12/25 03:42:26;;;;;;;39.42;19.88;;;;;;;3.05;100.00;100543.00;5100389;28;20483;-88
2021/12/25 03:44:51;;;;;;;41.47;20.75;;;;;;;3.04;100.00;100535.25;5114257;28;20471;-89
2021/12/25 03:47:34;;;;;;;38.03;18.83;;;;;;;2.98;100.00;100541.28;5116263;28;20385;-88
2021/12/25 03:58:20;;;;;;;31.55;17.10;;;;;;;2.81;100.00;100533.50;5115630;28;20119;-89
2021/12/25 04:00:47;;;;;;;33.25;17.88;;;;;;;2.76;100.00;100547.19;5096089;28;20024;-89
2021/12/25 04:03:23;;;;;;;28.88;16.05;;;;;;;2.71;100.00;100549.75;5094952;28;20026;-91
2021/12/25 04:05:49;;;;;;;37.30;18.95;;;;;;;2.59;100.00;100536.84;5109715;28;20463;-89
2021/12/25 04:08:18;;;;;;;30.25;16.42;;;;;;;2.54;100.00;100547.09;5114793;28;20032;-91
2021/12/25 04:10:49;;;;;;;33.05;17.42;;;;;;;2.48;100.00;100549.66;5103541;28;20038;-91
2021/12/25 04:13:17;;;;;;;34.08;18.25;;;;;;;2.46;100.00;100553.94;5115628;28;20494;-88
2021/12/25 04:15:43;;;;;;;34.22;17.08;;;;;;;2.45;100.00;100567.66;5099535;28;20038;-88
2021/12/25 04:18:09;;;;;;;35.85;18.27;;;;;;;2.41;100.00;100558.19;5103251;28;20023;-88
2021/12/25 04:20:35;;;;;;;33.80;17.88;;;;;;;2.36;100.00;100559.91;5111305;28;20034;-89
2021/12/25 04:23:05;;;;;;;32.30;17.73;;;;;;;2.34;100.00;100565.00;5110396;28;20031;-89
2021/12/25 04:25:33;;;;;;;32.55;17.02;;;;;;;2.30;100.00;100565.84;5097319;28;20038;-88
2021/12/25 04:28:08;;;;;;;32.70;17.35;;;;;;;2.26;100.00;100573.56;5095130;28;20551;-88
2021/12/25 04:30:46;;;;;;;33.78;17.60;;;;;;;2.23;100.00;100579.53;5110312;28;20055;-88
2021/12/25 04:42:35;;;;;;;32.65;18.20;;;;;;;2.26;100.00;100578.69;5114253;28;20066;-89
2021/12/25 05:03:36;;;;;;;;;;;;;;;1.84;100.00;100614.38;5115167;28;20039;-89
2021/12/25 05:06:01;;;;;;;33.50;18.75;;;;;;;1.67;100.00;100603.09;5109834;28;19923;-88
2021/12/25 05:08:26;;;;;;;33.30;19.25;;;;;;;1.61;100.00;100621.03;5094166;28;20032;-87
2021/12/25 05:10:51;;;;;;;31.23;19.15;;;;;;;1.51;100.00;100627.78;5094905;28;20383;-87
2021/12/25 05:13:17;;;;;;;33.78;20.13;;;;;;;1.40;100.00;100613.97;5093154;28;20020;-89
2021/12/25 05:15:42;;;;;;;35.25;19.77;;;;;;;1.35;100.00;100620.78;5093747;28;20016;-88
2021/12/25 05:18:07;;;;;;;37.75;20.08;;;;;;;1.32;100.00;100619.03;5104830;28;20038;-88
2021/12/25 05:20:33;;;;;;;34.40;19.30;;;;;;;1.26;100.00;100621.53;5113108;28;20100;-89
2021/12/25 05:22:58;;;;;;;39.42;21.10;;;;;;;1.19;100.00;100629.16;5112942;28;20023;-89
2021/12/25 05:25:23;;;;;;;39.65;20.10;;;;;;;1.13;100.00;100623.09;5097185;28;20038;-87
2021/12/25 05:27:50;;;;;;;32.55;19.35;;;;;;;1.08;100.00;100631.56;5092669;28;20471;-89
2021/12/25 05:30:17;;;;;;;33.45;18.83;;;;;;;0.98;100.00;100640.91;5093811;28;20029;-89
2021/12/25 05:32:43;;;;;;;36.63;19.88;;;;;;;0.91;100.00;100636.50;5104602;28;20824;-88
2021/12/25 05:35:08;;;;;;;35.90;20.00;;;;;;;0.85;100.00;100637.31;5113264;28;20039;-88
2021/12/25 05:37:34;;;;;;;37.95;20.70;;;;;;;0.79;100.00;100631.25;5103473;28;20471;-88
2021/12/25 05:40:01;;;;;;;36.08;20.20;;;;;;;0.77;100.00;100641.47;5103795;28;20577;-87
2021/12/25 05:42:26;;;;;;;34.53;19.73;;;;;;;0.67;100.00;100632.78;5105497;28;20102;-87
2021/12/25 05:44:52;;;;;;;35.65;19.75;;;;;;;0.57;100.00;100651.47;5112832;28;20115;-87
2021/12/25 05:47:17;;;;;;;35.33;19.83;;;;;;;0.47;100.00;100641.91;5096206;28;20027;-88
2021/12/25 05:49:42;;;;;;;38.55;20.90;;;;;;;0.47;100.00;100653.03;5099570;28;20246;-86
2021/12/25 05:52:08;;;;;;;38.15;20.52;;;;;;;0.44;100.00;100644.44;5092778;28;20170;-87
2021/12/25 05:54:36;;;;;;;38.33;20.27;;;;;;;0.56;100.00;100652.31;5093280;28;20039;-87
2021/12/25 05:57:02;;;;;;;38.47;20.38;;;;;;;0.60;100.00;100651.50;5093094;28;20028;-86
2021/12/25 05:59:27;;;;;;;37.35;20.08;;;;;;;0.60;100.00;100664.34;5113053;28;20025;-86
2021/12/25 06:01:53;;;;;;;39.90;20.65;;;;;;;0.56;100.00;100662.59;5109497;28;20432;-86
2021/12/25 06:04:18;;;;;;;37.67;19.42;;;;;;;0.48;100.00;100661.59;5099183;28;20089;-87
2021/12/25 06:06:43;;;;;;;37.85;19.88;;;;;;;0.52;100.00;100673.63;5111613;28;20546;-87
2021/12/25 06:09:09;;;;;;;35.17;18.77;;;;;;;0.42;100.00;100672.63;5094256;28;20031;-86
2021/12/25 06:11:38;;;;;;;36.15;18.98;;;;;;;0.32;100.00;100667.34;5106680;28;20032;-87
2021/12/25 06:14:10;;;;;;;34.78;18.77;;;;;;;0.32;100.00;100673.31;5103247;28;20061;-86
2021/12/25 06:16:39;;;;;;;35.47;19.90;;;;;;;0.30;100.00;100679.28;5110614;27;20102;-87
2021/12/25 06:19:05;;;;;;;39.08;20.20;;;;;;;0.21;100.00;100683.41;5095315;28;20032;-87
2021/12/25 06:21:31;;;;;;;36.83;19.88;;;;;;;0.16;100.00;100682.50;5092294;28;20574;-87
2021/12/25 06:24:00;;;;;;;37.97;20.08;;;;;;;0.16;100.00;100679.03;5092202;28;20485;-86
2021/12/25 06:26:25;;;;;;;36.47;17.58;;;;;;;0.16;100.00;100681.59;5093922;28;20024;-87
2021/12/25 06:28:51;;;;;;;39.65;20.58;;;;;;;0.17;100.00;100686.78;5107609;28;20058;-86
2021/12/25 06:31:16;;;;;;;35.38;18.33;;;;;;;0.10;100.00;100676.38;5106315;28;20095;-86
2021/12/25 06:33:41;;;;;;;38.78;19.17;;;;;;;0.14;100.00;100694.41;5095142;28;20035;-87
2021/12/25 06:36:06;;;;;;;35.78;19.10;;;;;;;0.12;100.00;100701.19;5108909;28;20091;-86
2021/12/25 06:38:32;;;;;;;35.50;18.17;;;;;;;0.08;100.00;100694.31;5100854;28;20514;-87
2021/12/25 06:40:57;;;;;;;34.33;18.58;;;;;;;-0.12;100.00;100687.97;5110001;28;20023;-87
2021/12/25 06:43:23;;;;;;;34.85;18.30;;;;;;;-0.15;100.00;100693.91;5111202;28;20094;-86
2021/12/25 06:45:48;;;;;;;33.78;18.67;;;;;;;-0.17;100.00;100693.00;5107417;28;20042;-86
2021/12/25 06:48:13;;;;;;;34.25;16.98;;;;;;;-0.16;100.00;100697.31;5099412;28;20662;-86
2021/12/25 06:50:39;;;;;;;36.88;18.60;;;;;;;-0.13;100.00;100701.59;5091756;28;20023;-87
2021/12/25 06:53:04;;;;;;;33.50;17.02;;;;;;;-0.16;100.00;100706.72;5091337;28;20068;-86
2021/12/25 06:55:29;;;;;;;34.17;17.02;;;;;;;-0.20;100.00;100686.97;5108114;28;20035;-87
2021/12/25 06:57:57;;;;;;;34.83;17.65;;;;;;;-0.29;100.00;100688.53;5106188;28;20533;-87
2021/12/25 07:00:24;;;;;;;35.10;17.45;;;;;;;-0.19;100.00;100704.09;5103244;28;20086;-86
2021/12/25 07:02:50;;;;;;;32.80;16.70;;;;;;;-0.15;100.00;100711.00;5110961;28;20031;-86
2021/12/25 07:05:15;;;;;;;33.40;17.08;;;;;;;-0.13;100.00;100711.84;5101704;28;20020;-87
2021/12/25 07:07:40;;;;;;;32.40;16.92;;;;;;;-0.12;100.00;100711.03;5092592;28;20043;-87
2021/12/25 07:10:07;;;;;;;31.58;16.45;;;;;;;-0.06;100.00;100724.84;5099152;28;20024;-87
2021/12/25 07:12:36;;;;;;;29.80;16.60;;;;;;;-0.06;100.00;100716.28;5100991;28;20021;-86
2021/12/25 07:15:04;;;;;;;33.95;15.88;;;;;;;-0.12;100.00;100722.16;5110566;28;20015;-86
2021/12/25 07:17:30;;;;;;;31.42;15.93;;;;;;;-0.15;100.00;100723.81;5109582;28;20032;-86
2021/12/25 07:19:55;;;;;;;30.40;16.05;;;;;;;-0.16;100.00;100729.78;5097597;28;20495;-86
2021/12/25 07:22:20;;;;;;;31.52;17.05;;;;;;;-0.27;100.00;100716.75;5104524;28;20478;-86
2021/12/25 07:24:45;;;;;;;32.95;16.85;;;;;;;-0.25;100.00;100730.44;5099709;28;20023;-87
2021/12/25 07:27:11;;;;;;;32.72;16.75;;;;;;;-0.19;100.00;100725.44;5096237;28;20089;-87
2021/12/25 07:29:37;;;;;;;34.95;17.35;;;;;;;-0.20;100.00;100730.53;5100616;28;20484;-87
2021/12/25 07:32:03;;;;;;;33.20;16.65;;;;;;;-0.17;100.00;100731.44;5111881;28;20073;-87
2021/12/25 07:34:28;;;;;;;32.28;16.88;;;;;;;-0.16;100.00;100740.03;5109091;28;20023;-87
2021/12/25 07:36:53;;;;;;;34.22;16.85;;;;;;;-0.24;100.00;100735.59;5094691;28;20105;-87
2021/12/25 07:39:18;;;;;;;28.90;15.02;;;;;;;-0.20;100.00;100748.47;5095736;28;20067;-87
2021/12/25 07:41:44;;;;;;;30.48;16.00;;;;;;;-0.27;100.00;100739.78;5105186;28;20115;-86
2021/12/25 07:44:09;;;;;;;31.60;15.40;;;;;;;-0.31;100.00;100740.59;5092980;28;20020;-86
2021/12/25 07:46:34;;;;;;;31.42;15.48;;;;;;;-0.30;100.00;100753.41;5091161;28;20036;-87
2021/12/25 07:49:00;;;;;;;28.65;15.27;;;;;;;-0.34;100.00;100753.31;5094562;28;20023;-87
2021/12/25 07:51:25;;;;;;;29.02;16.58;;;;;;;-0.40;100.00;100748.09;5111097;28;20035;-86
2021/12/25 07:53:51;;;;;;;27.25;14.50;;;;;;;-0.42;100.00;100757.44;5108025;28;20463;-86
2021/12/25 07:56:16;;;;;;;29.38;15.02;;;;;;;-0.43;100.00;100755.69;5104303;28;20107;-86
2021/12/25 07:58:42;;;;;;;25.23;14.70;;;;;;;-0.47;100.00;100754.78;5109577;28;20023;-86
2021/12/25 08:01:08;;;;;;;25.38;14.40;;;;;;;-0.53;100.00;100755.50;5109508;28;20038;-86
2021/12/25 08:03:33;;;;;;;31.02;15.45;;;;;;;-0.55;100.00;100761.47;5108916;28;20028;-87
2021/12/25 08:05:59;;;;;;;28.13;15.20;;;;;;;-0.51;100.00;100763.25;5100629;28;20509;-87
2021/12/25 08:08:24;;;;;;;27.15;15.35;;;;;;;-0.53;100.00;100757.22;5100782;28;20032;-86
2021/12/25 08:10:50;;;;;;;28.73;14.40;;;;;;;-0.45;100.00;100773.63;5105329;28;20034;-87
2021/12/25 08:13:16;;;;;;;27.10;13.52;;;;;;;-0.49;100.00;100771.84;5095188;28;20027;-86
2021/12/25 08:15:42;;;;;;;25.13;13.40;;;;;;;-0.42;100.00;100773.69;5104375;28;20124;-86
2021/12/25 08:18:08;;;;;;;24.92;13.32;;;;;;;-0.46;100.00;100789.78;5108340;28;20016;-87
2021/12/25 08:20:34;;;;;;;24.42;13.65;;;;;;;-0.51;100.00;100776.06;5094402;28;20622;-87
2021/12/25 08:22:59;;;;;;;24.90;14.73;;;;;;;-0.42;100.00;100789.03;5094367;28;20107;-87
2021/12/25 08:25:25;;;;;;;26.67;14.25;;;;;;;-0.40;100.00;100779.69;5092254;28;20129;-86
2021/12/25 08:27:51;;;;;;;24.27;15.02;;;;;;;-0.39;100.00;100791.69;5094672;28;20024;-86
2021/12/25 08:30:20;;;;;;;26.50;13.95;;;;;;;-0.37;100.00;100794.25;5098813;28;20114;-86
2021/12/25 08:32:47;;;;;;;26.25;15.68;;;;;;;-0.36;100.00;100796.88;5110758;28;20058;-86
2021/12/25 08:35:16;;;;;;;21.10;12.82;;;;;;;-0.39;100.00;100793.34;5106132;28;20036;-86
2021/12/25 08:37:43;;;;;;;23.52;13.05;;;;;;;-0.37;100.00;100802.78;5105187;28;20032;-86
2021/12/25 08:40:11;;;;;;;23.55;12.52;;;;;;;-0.39;100.00;100798.47;5109850;28;20498;-85
2021/12/25 08:42:36;;;;;;;24.30;12.93;;;;;;;-0.47;100.00;100806.00;5094078;28;20028;-86
2021/12/25 08:47:33;;;;;;;24.05;13.30;;;;;;;-0.47;100.00;100813.69;5113954;28;20040;-86
2021/12/25 08:50:04;;;;;;;24.55;12.68;;;;;;;-0.50;100.00;100811.06;5099746;28;20028;-86
2021/12/25 08:52:29;;;;;;;23.60;13.48;;;;;;;-0.56;100.00;100813.50;5094511;28;20044;-86
2021/12/25 08:54:54;;;;;;;25.42;13.57;;;;;;;-0.57;100.00;100815.19;5098952;28;20131;-87
2021/12/25 08:57:21;;;;;;;22.88;12.73;;;;;;;-0.48;100.00;100817.94;5102480;28;20024;-85
2021/12/25 08:59:51;;;;;;;20.73;12.88;;;;;;;-0.53;100.00;100819.53;5096756;28;20383;-87
2021/12/25 09:02:17;;;;;;;25.00;13.95;;;;;;;-0.50;100.00;100832.41;5095574;28;20035;-86
2021/12/25 09:04:45;;;;;;;21.45;12.88;;;;;;;-0.51;100.00;100815.31;5096387;28;20023;-86
2021/12/25 09:07:11;;;;;;;24.13;12.50;;;;;;;-0.54;100.00;100814.41;5108906;28;20056;-86
2021/12/25 09:09:37;;;;;;;22.67;13.05;;;;;;;-0.57;100.00;100815.19;5094872;28;20028;-86
2021/12/25 09:12:04;;;;;;;21.33;12.73;;;;;;;-0.53;100.00;100832.34;5093450;28;20246;-85
2021/12/25 09:14:29;;;;;;;21.40;11.75;;;;;;;-0.54;100.00;100830.63;5107729;28;20027;-85
2021/12/25 09:16:55;;;;;;;20.15;11.73;;;;;;;-0.54;100.00;100827.19;5112114;28;20030;-85
2021/12/25 09:19:20;;;;;;;18.98;11.60;;;;;;;-0.56;100.00;100832.28;5099939;28;20158;-85
2021/12/25 09:21:45;;;;;;;21.27;12.60;;;;;;;-0.61;100.00;100833.03;5093489;28;20463;-86
2021/12/25 09:24:11;;;;;;;22.77;11.32;;;;;;;-0.61;100.00;100825.34;5098173;28;20103;-86
2021/12/25 09:26:37;;;;;;;22.17;12.05;;;;;;;-0.61;100.00;100836.44;5109573;28;20035;-86
2021/12/25 09:29:02;;;;;;;21.45;13.18;;;;;;;-0.57;100.00;100837.38;5113175;28;20047;-85
2021/12/25 09:31:29;;;;;;;20.55;12.68;;;;;;;-0.57;100.00;100834.81;5113528;28;20043;-85
2021/12/25 09:33:54;;;;;;;18.42;11.10;;;;;;;-0.60;100.00;100827.94;5101530;27;20114;-86
2021/12/25 09:36:21;;;;;;;20.52;11.73;;;;;;;-0.57;100.00;100835.69;5105121;28;20023;-85
2021/12/25 09:38:47;;;;;;;20.75;11.45;;;;;;;-0.58;100.00;100839.06;5097724;28;20020;-85
2021/12/25 09:41:14;;;;;;;20.38;11.25;;;;;;;-0.72;100.00;100831.09;5094907;28;20030;-85
2021/12/25 09:43:40;;;;;;;23.17;12.02;;;;;;;-0.62;100.00;100831.28;5113366;28;20020;-85
2021/12/25 09:46:07;;;;;;;20.23;12.15;;;;;;;-0.60;100.00;100840.72;5114012;28;20383;-86
2021/12/25 09:48:33;;;;;;;20.77;11.55;;;;;;;-0.60;100.00;100855.22;5102710;28;20024;-85
2021/12/25 09:50:59;;;;;;;16.77;10.52;;;;;;;-0.62;100.00;100851.75;5106804;28;20065;-85
2021/12/25 09:53:28;;;;;;;18.75;10.48;;;;;;;-0.66;100.00;100843.16;5102219;28;20035;-86
2021/12/25 09:55:53;;;;;;;17.02;11.20;;;;;;;-0.72;100.00;100855.81;5092522;28;20024;-85
2021/12/25 09:58:19;;;;;;;18.17;10.75;;;;;;;-0.73;100.00;100856.66;5093378;28;20038;-86
2021/12/25 10:00:46;;;;;;;21.90;10.70;;;;;;;-0.71;100.00;100878.91;5097210;28;20042;-86
2021/12/25 10:03:12;;;;;;;19.80;10.85;;;;;;;-0.72;100.00;100879.75;5111084;28;20034;-86
2021/12/25 10:05:43;;;;;;;18.92;11.10;;;;;;;-0.68;100.00;100879.81;5111448;28;20027;-85
2021/12/25 10:08:15;;;;;;;24.30;12.00;;;;;;;-0.62;100.00;100887.59;5106616;28;20105;-86
2021/12/25 10:10:50;;;;;;;19.90;11.60;;;;;;;-0.57;100.00;100888.59;5092510;28;20356;-86
2021/12/25 10:13:34;;;;;;;21.17;11.10;;;;;;;-0.56;100.00;100882.63;5094129;28;20097;-86
2021/12/25 10:16:19;;;;;;;21.15;12.40;;;;;;;-0.57;100.00;100879.22;5092126;28;20032;-86
2021/12/25 10:18:44;;;;;;;21.42;11.77;;;;;;;-0.57;100.00;100881.78;5091989;28;20546;-86
2021/12/25 10:21:19;;;;;;;19.40;12.10;;;;;;;-0.51;100.00;100894.72;5092158;28;20024;-85
2021/12/25 10:23:45;;;;;;;24.83;12.63;;;;;;;-0.53;100.00;100872.47;5099528;28;20096;-86
2021/12/25 10:26:10;;;;;;;20.25;11.32;;;;;;;-0.53;100.00;100887.81;5112991;28;20046;-85
2021/12/25 10:28:39;;;;;;;19.30;11.98;;;;;;;-0.54;100.00;100889.53;5109917;28;20089;-86
2021/12/25 10:31:16;;;;;;;18.65;11.88;;;;;;;-0.57;100.00;100891.16;5112315;28;20475;-86
2021/12/25 10:33:50;;;;;;;18.65;11.43;;;;;;;-0.52;100.00;100893.00;5092088;28;20112;-86
2021/12/25 10:36:25;;;;;;;21.85;11.63;;;;;;;-0.56;100.00;100877.50;5094888;28;20023;-86
2021/12/25 10:39:11;;;;;;;17.63;10.43;;;;;;;-0.57;100.00;100878.34;5107116;28;20031;-86
2021/12/25 10:41:40;;;;;;;20.95;12.25;;;;;;;-0.62;100.00;100879.94;5112357;28;20030;-85
2021/12/25 10:44:17;;;;;;;19.65;11.55;;;;;;;-0.66;100.00;100881.56;5110224;28;20034;-86
2021/12/25 10:46:55;;;;;;;21.95;11.68;;;;;;;-0.70;100.00;100879.75;5098498;28;20044;-86
2021/12/25 10:49:22;;;;;;;19.40;11.30;;;;;;;-0.65;100.00;100887.56;5097095;28;20106;-84
2021/12/25 10:51:48;;;;;;;23.77;15.90;;;;;;;-0.66;100.00;100870.44;5090871;28;20012;-83
2021/12/25 10:54:15;;;;;;;20.30;11.82;;;;;;;-0.62;100.00;100887.59;5095071;28;20028;-85
2021/12/25 10:56:44;;;;;;;20.48;12.50;;;;;;;-0.69;100.00;100876.38;5091733;28;20020;-84
2021/12/25 10:59:12;;;;;;;21.35;12.52;;;;;;;-0.58;100.00;100877.50;5091299;28;20464;-85
2021/12/25 11:01:42;;;;;;;19.75;11.27;;;;;;;-0.77;100.00;100863.41;5098943;28;20032;-86
2021/12/25 11:04:25;;;;;;;16.83;11.13;;;;;;;-0.74;100.00;100878.84;5107001;28;20474;-84
2021/12/25 11:06:51;;;;;;;15.73;10.75;;;;;;;-0.81;100.00;100864.16;5111499;28;20038;-84
2021/12/25 11:09:16;;;;;;;15.25;9.13;;;;;;;-0.72;100.00;100872.06;5110213;28;20024;-83
2021/12/25 11:11:41;;;;;;;14.23;8.88;;;;;;;-0.78;100.00;100871.06;5097391;28;20028;-84
2021/12/25 11:14:07;;;;;;;14.65;9.68;;;;;;;-0.73;100.00;100877.13;5103590;28;20059;-84
2021/12/25 11:16:37;;;;;;;15.95;9.48;;;;;;;-0.77;100.00;100883.88;5093752;28;20016;-83
2021/12/25 11:21:35;;;;;;;15.43;8.55;;;;;;;-0.91;100.00;100885.25;5091372;28;20043;-84
2021/12/25 11:24:04;;;;;;;14.27;8.73;;;;;;;-0.95;100.00;100886.00;5092221;28;20024;-84
2021/12/25 11:26:31;;;;;;;14.20;8.68;;;;;;;-0.97;100.00;100885.97;5102210;28;20032;-82
2021/12/25 11:28:56;;;;;;;12.70;8.30;;;;;;;-1.06;100.00;100879.75;5112152;28;20044;-83
2021/12/25 11:31:21;;;;;;;12.15;6.90;;;;;;;-1.07;100.00;100883.16;5112005;28;20028;-84
2021/12/25 11:33:46;;;;;;;10.45;6.90;;;;;;;-1.22;100.00;100870.84;5104452;28;20042;-83
2021/12/25 11:36:12;;;;;;;9.65;6.82;;;;;;;-1.26;100.00;100871.59;5106659;28;20380;-83
2021/12/25 11:38:37;;;;;;;9.77;7.10;;;;;;;-1.29;100.00;100867.28;5095458;28;20039;-83
2021/12/25 11:41:06;;;;;;;10.05;7.22;;;;;;;-1.33;100.00;100869.72;5091281;28;20475;-84
2021/12/25 11:43:44;;;;;;;12.25;7.68;;;;;;;-1.26;100.00;100862.22;5102502;28;20023;-84
2021/12/25 11:46:09;;;;;;;15.02;8.35;;;;;;;-1.18;100.00;100864.97;5112039;28;20027;-83
2021/12/25 11:48:37;;;;;;;13.90;8.15;;;;;;;-1.11;100.00;100865.97;5106569;28;20031;-83
2021/12/25 11:51:04;;;;;;;13.13;9.07;;;;;;;-0.99;100.00;100871.41;5110425;28;20475;-83
2021/12/25 11:54:11;;;;;;;11.55;7.38;;;;;;;-0.98;100.00;100880.84;5094427;28;20028;-83
2021/12/25 11:56:50;;;;;;;9.60;6.05;;;;;;;-1.04;100.00;100878.97;5089549;28;20024;-83
2021/12/25 11:59:17;;;;;;;12.45;6.15;;;;;;;-1.02;100.00;100879.00;5104657;28;20411;-83
2021/12/25 12:01:51;;;;;;;9.07;5.88;;;;;;;-1.03;100.00;100874.72;5111586;28;20028;-83
2021/12/25 12:04:24;;;;;;;10.32;6.25;;;;;;;-0.97;100.00;100870.63;5113857;28;20057;-83
2021/12/25 12:06:53;;;;;;;9.50;5.95;;;;;;;-0.93;100.00;100866.44;5115983;28;20100;-84
2021/12/25 12:09:24;;;;;;;11.50;6.63;;;;;;;-0.84;100.00;100873.47;5099387;28;20427;-86
2021/12/25 12:12:11;;;;;;;11.35;5.57;;;;;;;-0.77;100.00;100868.53;5099122;28;20028;-83
2021/12/25 12:14:36;;;;;;;11.35;5.53;;;;;;;-0.75;100.00;100866.88;5111763;28;20475;-82